BFIBOEING FIELD/KING COUNTY INTL
METARs for nearby airports:
N 0 21' KBFI 182153Z VRB05KT 10SM CLR 25/10 A3015
SE 4 32' KRNT 182153Z 31008KT 10SM HZ CLR 26/12 A3014
S 4 432' KSEA 182153Z 29008KT 10SM CLR 26/11 A3016
W 18 444' KPWT 182156Z 07008KT 10SM CLR 26/13 A3016
SW 19 294' KTIW 182153Z VRB04KT 10SM CLR 23/12 A3016
N 22 607' KPAE 182153Z 35005KT 10SM CLR 23/09 A3018
S 24 322' KTCM 182158Z 04005KT 10SM CLR 26/13 A3016
S 25 537' KPLU 182155Z 00000KT 10SM CLR 26/11 A3017
S 29 300' KGRF 182158Z 00000KT 10SM CLR 26/13 A3015
N 38 141' KAWO 182156Z 32006KT 10SM CLR 24/13 A3016
SW 38 272' KSHN 182153Z 14005KT 10SM CLR 28/12 A3012
SW 41 207' KOLM 182154Z 03005KT 10SM CLR 27/11 A3015
N 51 47' KNUW 182156Z 30003KT 10SM CLR 21/12 A3021
N 56 145' KBVS 182155Z 32007KT 10SM CLR 23/13 A3016
NW 57 13' KNOW 182150Z 06003KT 10SM CLR 19/13 A3018
SW 58 177' KCLS 182215Z VRB03G10KT 10SM CLR 29/12 A3014
NW 59 291' KCLM 182153Z 04007KT 360V070 10SM CLR 22/12 A3019
NW 66 112' KFHR 182153Z 35006KT 10SM CLR 24/11 A3018
SW 74 17' KHQM 182153Z 23011KT 5SM HZ CLR 18/14 A3019
N 74 34' KORS 182215Z 34005KT 10SM 19/15 A3016
N 76 171' KBLI 182153Z 29007KT 10SM FU BKN050 22/14 A3017
E 78 1763' KELN 182153Z 00000KT 2 1/2SM HZ BKN030 OVC036 32/09 A3011
NW 80 64' CYYJ 182200Z 11007KT 060V130 30SM BKN250 22/13 A3017
E 85 1248' KEAT 182213Z 25006KT 2 1/2SM HZ OVC031 30/08 A3007
S 88 20' KKLS 182156Z 34006KT 10SM CLR 29/11 A3012
SE 92 1098' KYKM 182153Z 17007KT 6SM HZ CLR 32/10 A3008
W 94 193' KUIL 182153Z 25004KT 10SM CLR 19/13 A3018
TAFs for nearby airports:
N 0 21' KBFI KBFI 181722Z 1818/1918 32007KT P6SM FEW200
  FM190300 36005KT P6SM SKC
  FM191200 VRB04KT P6SM SKC
S 4 432' KSEA TAF
  AMD KSEA 182102Z 1821/1924 32007KT P6SM SKC
  FM190300 36005KT P6SM SKC
  FM191200 VRB04KT P6SM SKC
  FM191800 33008KT P6SM SKC
W 18 444' KPWT TAF KPWT 181722Z 1818/1918 03006KT P6SM SKC
  FM190200 05005KT P6SM SKC
N 22 607' KPAE KPAE 181722Z 1818/1918 34006KT P6SM SCT200
  FM190200 VRB03KT P6SM SKC
S 24 322' KTCM TAF KTCM 182102Z 1821/2003 33009KT 9999 SKC QNH3008INS
  BECMG 1908/1909 25006KT 9999 FEW090 QNH3007INS
  BECMG 1917/1918 33009KT 9999 SKC QNH3007INS TX27/1900Z TN17/1912Z
S 29 300' KGRF TAF TAF KGRF 182102Z 1821/2003 33009KT 9999 SKC QNH3008INS
  BECMG 1908/1909 25006KT 9999 FEW090 QNH3007INS
  BECMG 1917/1918 33009KT 9999 SKC QNH3007INS TX27/1900Z TN17/1912Z
SW 41 207' KOLM KOLM 181722Z 1818/1918 03005KT P6SM SKC
  FM190600 18003KT P6SM SKC
  FM191700 03005KT P6SM SKC
N 51 47' KNUW TAF KNUW 1807/1907 VRB06KT 9999 FEW040 SCT200 QNH3018INS
  TEMPO 1812/1818 VRB05KT 4800 BR BKN010
  FM182000 26008KT 9999 FEW250 QNH3021INS T12/1812Z T21/1823Z FS30112
NW 59 291' KCLM KCLM 181722Z 1818/1918 07006KT P6SM SCT200
  FM190000 33006KT P6SM SKC
  FM190300 29005KT P6SM SKC
SW 74 17' KHQM KHQM 181722Z 1818/1918 19005KT 5SM HZ SCT009
  FM182000 24010KT P6SM SKC
  FM190400 23007KT P6SM OVC015
N 76 171' KBLI KBLI 181722Z 1818/1918 00000KT 4SM HZ BKN200
  FM182000 23005KT P6SM BKN200
  FM190100 VRB04KT P6SM BKN200
E 85 1248' KEAT KEAT 181727Z 1818/1918 30008KT P6SM SKC
  FM182000 14004KT 5SM FU FEW250
  FM190000 VRB04KT 6SM FU FEW250
  FM190700 31007KT 4SM FU SCT040
SE 92 1098' KYKM TAF KYKM 181720Z 1818/1918 29007KT P6SM FEW250
  FM182000 13005KT 6SM HZ FU SKC
  FM190500 29009KT 5SM HZ FU SKC
Area forecast:
000
FAUS46 KKCI 101945
FA6W  
SFOC FA 101945
SYNOPSIS AND VFR CLDS/WX
SYNOPSIS VALID UNTIL 111400
CLDS/WX VALID UNTIL 110800...OTLK VALID 110800-111400
WA OR CA AND CSTL WTRS
.
SEE AIRMET SIERRA FOR IFR CONDS AND MTN OBSCN.
TS IMPLY SEV OR GTR TURB SEV ICE LLWS AND IFR CONDS.
NON MSL HGTS DENOTED BY AGL OR CIG.
.
SYNOPSIS...UPR LVL TROF WAS LOCATED NR 130W. MOIST SWLY FLOW
EXTDS FROM PAC NW EWD INTO NRN ROCKIES. HIGH PRES RIDGE WAS OVR
MUCH OF THE REST OF THE AREA. BY 14Z...UPR LVL TROF WILL EXTD
FROM WA-OR SWD INTO CA.  ..STREIB..
.
WA CASCDS WWD
CSTL SXNS
CSTLN-INLAND...SCT-BKN025 BKN035-050 TOPS 120-140. ISOL -SHRA.
   OTLK...MVFR CIGS SHRA BR.
PUGET SOUND-INTR VLY...SCT-BKN020 BKN-OVC035-050 TOPS 160 BKN CI.
   WDLY SCT -SHRA. OTLK...MVFR CIGS SHRA.
CASCDS...BKN-OVC050-070 TOPS FL180. BKN CI ABV. WDLY SCT -SHRA.
   OTLK...MVFR CIGS SHRA.
.
WA E OF CASCDS
CNTRL WA...SCT140 OVC CI. BECMG 2302 SCT080 BKN120 LYRD FL240.
   OTLK...VFR.
ERN WA...SCT-BKN140-160 LYRD FL240. BECMG 0508 BKN080 OVC120
   LYRD FL240 ISOL -SHRA DVLPG. OTLK...VFR.
.
OR CASCDS WWD
CSTL SXNS
CSTLN-INLAND...SCT-BKN020 BKN-OVC035-050 TOPS FL180. WDLY SCT
   -SHRA. OTLK...MVFR CIGS SHRA.
WILLAMETTE VLY/SWRN INTR...SCT-BKN020 BKN-OVC035-050 TOPS FL180.
   WDLY SCT -SHRA. OTLK...MVFR CIGS SHRA.
CASCDS...SCT-BKN060 BKN-OVC080-100 TOPS FL180 ISOL -SHRA.
   OTLK...MVFR CIGS SHRA.
.
OR E OF CASCDS
CNTRL...SCT100-120 BKN150 LYRD FL240. OTLK...VFR.
ERN...SCT130-150 BKN CI. BECMG 0205 OVC120-140 LYRD FL240.
   OTLK...VFR.
.
NRN CA...STS-SAC-TVL LN NWD
CSTL SXNS...
   FOT NWD...SCT025 BKN CI ABV. BECMG 0205 SCT020 OVC050 TOPS
      160. ISOL -SHRA. OTLK...IFR CIGS.
   S OF FOT...SCT-BKN010 TOPS 030-040. OTLK...IFR CIGS.
REST OF AREA...SKC OCNL SCT CI. OCNL VYS 3-5SM FU HZ.
   OTLK...VFR.
SAC VLY...
   NRN AND CNTRL SXNS...SKC. OTLK...VFR.
   SRN SXNS...SKC. OCNL VIS 3-5SM FU HZ. OTLK...MVFR FU HZ.
SHASTA-SISKIYOUS-NERN CA...
NRN SIERRAS...SKC OCNL SCT CI. WINDS SLY G25KT. OTLK...VFR WIND.
.
CNTRL CA
CSTL SXNS...
   CSTLN...SKC OCNL SCT010. BECMG 0508 OCNL CIGS BKN-SCT010 TOPS
      020-030. OTLK...IFR CIGS.
   INLAND...SKC. OTLK...VFR BECMG 1114 IFR CIGS BR.
SAN JOAQUIN VLY...SKC. OTLK...VFR.
SRN SIERRAS..SKC. OTLK...VFR.
.
SRN CA..VBG-NID-60NNW BIH LN SWD
CSTL SXNS...
   CSTLN...
      EXTRM SRN SXNS...SKC. BECMG 0205 SCT010. BECMG 0508 CIGS
         BKN-OVC010 TOPS 030. OTLK...IFR CIGS.
      REST OF AREA...SKC. OTLK...VFR BECMG 0811 IFR CIGS BR.
   INLAND...SKC OCNL FEW CI. OTLK...VFR.
INTR MTNS-MOJAVE-SRN DESERTS...SKC OCNL FEW CI. OTLK...VFR.
.
CSTL WTRS
WA...SCT-BKN035-050 TOPS 100-120. ISOL -SHRA. OTLK...VFR.
OR...
NWRN HLF...SCT-BKN035-050 TOPS 100-120. ISOL -SHRA. OTLK...VFR.
SERN HLF...SCT-BKN025 BKN035-050 TOPS FL180 BKN CI ABV. WDLY SCT
   -SHRA. OTLK...MVFR CIGS SHRA.
CA...
NRN CA...
   FOT NWD...SCT025 BKN CI ABV. BECMG 0205 SCT020 OVC050 TOPS
      160. ISOL -SHRA. OTLK...IFR CIGS.
   S OF FOT...SCT-BKN010 TOPS 030-040. OTLK...IFR CIGS.
CNTRL CA...SCT-BKN010 TOPS 030-040. OTLK...IFR CIGS.
SRN CA...
   OUTER CSTL WTRS...CIGS BKN010-020 TOPS 030-050.
      OTLK...IFR CIGS.
   ADJ CSTL WTRS...SKC. OCNL AGL SCT010. OTLK...VFR BECMG 0811
      IFR CIGS BR.
.
THE AREA FORECAST WILL TERMINATE AT 2359Z ON 10 OCTOBER 2017. IN
PLACE OF THE AREA FORECAST...PLEASE SEE THE GRAPHICAL FORECAST AT
WWW.AVIATIONWEATHER.GOV/GFA. GRAPHICAL AND TEXT AIRMETS WILL
CONTINUE AS REGULARLY SCHEDULED.
....

Shortcut to this page: http://wxbay.com.

Data may contain errors.